sensor_id;sensor_type;location;lat;lon;timestamp;P1;durP1;ratioP1;P2;durP2;ratioP2
12459;SDS011;6295;49.452;8.466;2023-06-22T03:14:13;14.20;;;12.87;;
12459;SDS011;6295;49.452;8.466;2023-06-22T03:18:16;13.13;;;11.93;;
12459;SDS011;6295;49.452;8.466;2023-06-22T03:22:18;13.10;;;11.90;;
12459;SDS011;6295;49.452;8.466;2023-06-22T03:26:20;12.83;;;11.63;;
12459;SDS011;6295;49.452;8.466;2023-06-22T03:30:24;13.03;;;11.83;;
12459;SDS011;6295;49.452;8.466;2023-06-22T03:34:26;13.13;;;11.93;;
12459;SDS011;6295;49.452;8.466;2023-06-22T03:38:28;12.30;;;11.10;;
12459;SDS011;6295;49.452;8.466;2023-06-22T03:42:30;12.80;;;11.60;;
12459;SDS011;6295;49.452;8.466;2023-06-22T03:46:34;11.90;;;10.80;;
12459;SDS011;6295;49.452;8.466;2023-06-22T03:50:36;12.93;;;11.67;;
12459;SDS011;6295;49.452;8.466;2023-06-22T03:54:38;12.00;;;10.90;;
12459;SDS011;6295;49.452;8.466;2023-06-22T03:58:40;12.60;;;11.50;;
12459;SDS011;6295;49.452;8.466;2023-06-22T04:02:46;13.17;;;12.03;;
12459;SDS011;6295;49.452;8.466;2023-06-22T04:06:48;12.80;;;11.70;;
12459;SDS011;6295;49.452;8.466;2023-06-22T04:10:50;12.10;;;11.00;;
12459;SDS011;6295;49.452;8.466;2023-06-22T04:14:52;12.53;;;11.33;;
12459;SDS011;6295;49.452;8.466;2023-06-22T04:18:56;12.23;;;11.13;;
12459;SDS011;6295;49.452;8.466;2023-06-22T04:22:58;13.10;;;11.90;;
12459;SDS011;6295;49.452;8.466;2023-06-22T04:27:00;12.23;;;11.13;;
12459;SDS011;6295;49.452;8.466;2023-06-22T04:31:03;13.07;;;11.97;;
12459;SDS011;6295;49.452;8.466;2023-06-22T04:35:07;12.43;;;11.33;;
12459;SDS011;6295;49.452;8.466;2023-06-22T04:39:10;14.40;;;12.90;;
12459;SDS011;6295;49.452;8.466;2023-06-22T04:43:12;13.27;;;11.97;;
12459;SDS011;6295;49.452;8.466;2023-06-22T04:47:14;13.20;;;11.97;;
12459;SDS011;6295;49.452;8.466;2023-06-22T04:51:18;13.63;;;12.43;;
12459;SDS011;6295;49.452;8.466;2023-06-22T04:55:21;14.03;;;12.83;;
12459;SDS011;6295;49.452;8.466;2023-06-22T04:59:26;14.07;;;12.70;;
12459;SDS011;6295;49.452;8.466;2023-06-22T05:03:31;14.27;;;12.97;;
12459;SDS011;6295;49.452;8.466;2023-06-22T05:07:34;13.83;;;12.63;;
12459;SDS011;6295;49.452;8.466;2023-06-22T05:11:37;12.60;;;11.40;;
12459;SDS011;6295;49.452;8.466;2023-06-22T05:15:39;11.87;;;10.77;;
12459;SDS011;6295;49.452;8.466;2023-06-22T05:19:41;11.63;;;10.57;;
12459;SDS011;6295;49.452;8.466;2023-06-22T05:23:46;11.47;;;10.37;;
12459;SDS011;6295;49.452;8.466;2023-06-22T05:27:48;11.83;;;10.63;;
12459;SDS011;6295;49.452;8.466;2023-06-22T05:31:54;11.03;;;10.03;;
12459;SDS011;6295;49.452;8.466;2023-06-22T05:35:58;10.33;;;9.33;;
12459;SDS011;6295;49.452;8.466;2023-06-22T05:40:05;11.10;;;10.20;;
12459;SDS011;6295;49.452;8.466;2023-06-22T05:44:09;10.80;;;9.80;;
12459;SDS011;6295;49.452;8.466;2023-06-22T05:48:12;9.17;;;8.37;;
12459;SDS011;6295;49.452;8.466;2023-06-22T05:52:15;8.47;;;7.70;;
12459;SDS011;6295;49.452;8.466;2023-06-22T05:56:20;12.00;;;10.90;;
12459;SDS011;6295;49.452;8.466;2023-06-22T06:00:22;9.90;;;9.00;;
12459;SDS011;6295;49.452;8.466;2023-06-22T06:04:24;8.73;;;7.97;;
12459;SDS011;6295;49.452;8.466;2023-06-22T06:08:28;9.50;;;8.60;;
12459;SDS011;6295;49.452;8.466;2023-06-22T06:12:36;9.70;;;8.90;;
12459;SDS011;6295;49.452;8.466;2023-06-22T06:16:38;10.57;;;9.57;;
12459;SDS011;6295;49.452;8.466;2023-06-22T06:20:44;8.83;;;8.03;;
12459;SDS011;6295;49.452;8.466;2023-06-22T06:24:48;9.10;;;8.30;;
12459;SDS011;6295;49.452;8.466;2023-06-22T06:28:52;9.80;;;8.80;;
12459;SDS011;6295;49.452;8.466;2023-06-22T06:32:54;9.47;;;8.50;;
12459;SDS011;6295;49.452;8.466;2023-06-22T06:36:56;8.50;;;7.70;;
12459;SDS011;6295;49.452;8.466;2023-06-22T06:40:59;10.33;;;9.33;;
12459;SDS011;6295;49.452;8.466;2023-06-22T06:45:03;8.70;;;7.90;;
12459;SDS011;6295;49.452;8.466;2023-06-22T06:49:06;9.13;;;8.30;;
12459;SDS011;6295;49.452;8.466;2023-06-22T06:53:08;13.93;;;8.73;;
12459;SDS011;6295;49.452;8.466;2023-06-22T06:57:11;8.67;;;7.87;;
12459;SDS011;6295;49.452;8.466;2023-06-22T07:01:17;9.13;;;8.33;;
12459;SDS011;6295;49.452;8.466;2023-06-22T07:05:19;8.60;;;7.80;;
12459;SDS011;6295;49.452;8.466;2023-06-22T07:09:22;8.33;;;7.63;;
12459;SDS011;6295;49.452;8.466;2023-06-22T07:13:24;7.30;;;6.70;;
12459;SDS011;6295;49.452;8.466;2023-06-22T07:17:27;8.10;;;7.40;;
12459;SDS011;6295;49.452;8.466;2023-06-22T07:21:30;8.07;;;7.37;;
12459;SDS011;6295;49.452;8.466;2023-06-22T07:25:34;7.37;;;6.67;;
12459;SDS011;6295;49.452;8.466;2023-06-22T07:29:38;7.67;;;6.97;;
12459;SDS011;6295;49.452;8.466;2023-06-22T07:33:48;7.60;;;6.90;;
12459;SDS011;6295;49.452;8.466;2023-06-22T07:37:50;6.63;;;6.03;;
12459;SDS011;6295;49.452;8.466;2023-06-22T07:41:52;7.03;;;6.43;;
12459;SDS011;6295;49.452;8.466;2023-06-22T07:45:55;7.60;;;6.17;;
12459;SDS011;6295;49.452;8.466;2023-06-22T07:50:00;7.27;;;6.57;;
12459;SDS011;6295;49.452;8.466;2023-06-22T07:54:03;6.50;;;6.00;;
12459;SDS011;6295;49.452;8.466;2023-06-22T07:58:05;7.20;;;6.50;;
12459;SDS011;6295;49.452;8.466;2023-06-22T08:02:07;6.97;;;6.30;;
12459;SDS011;6295;49.452;8.466;2023-06-22T08:06:11;6.73;;;6.00;;
12459;SDS011;6295;49.452;8.466;2023-06-22T08:10:13;6.33;;;5.83;;
12459;SDS011;6295;49.452;8.466;2023-06-22T08:14:15;6.57;;;6.00;;
12459;SDS011;6295;49.452;8.466;2023-06-22T08:18:18;6.87;;;6.27;;
12459;SDS011;6295;49.452;8.466;2023-06-22T08:22:24;7.37;;;6.67;;
12459;SDS011;6295;49.452;8.466;2023-06-22T08:26:30;7.00;;;6.40;;
12459;SDS011;6295;49.452;8.466;2023-06-22T08:30:36;7.20;;;6.60;;
12459;SDS011;6295;49.452;8.466;2023-06-22T08:34:38;7.10;;;6.40;;
12459;SDS011;6295;49.452;8.466;2023-06-22T08:38:43;8.73;;;7.17;;
12459;SDS011;6295;49.452;8.466;2023-06-22T08:42:50;7.63;;;7.03;;
12459;SDS011;6295;49.452;8.466;2023-06-22T08:46:52;7.30;;;6.60;;
12459;SDS011;6295;49.452;8.466;2023-06-22T08:50:54;7.30;;;6.60;;
12459;SDS011;6295;49.452;8.466;2023-06-22T08:54:59;7.43;;;6.73;;
12459;SDS011;6295;49.452;8.466;2023-06-22T08:59:02;7.33;;;6.70;;
12459;SDS011;6295;49.452;8.466;2023-06-22T09:03:07;7.47;;;6.60;;
12459;SDS011;6295;49.452;8.466;2023-06-22T09:07:09;7.47;;;6.77;;
12459;SDS011;6295;49.452;8.466;2023-06-22T09:11:13;7.63;;;6.83;;
12459;SDS011;6295;49.452;8.466;2023-06-22T09:15:15;7.20;;;6.50;;
12459;SDS011;6295;49.452;8.466;2023-06-22T09:19:18;7.40;;;6.80;;
12459;SDS011;6295;49.452;8.466;2023-06-22T09:23:20;7.33;;;6.63;;
12459;SDS011;6295;49.452;8.466;2023-06-22T09:27:24;8.37;;;6.57;;
12459;SDS011;6295;49.452;8.466;2023-06-22T09:31:27;8.87;;;6.70;;
12459;SDS011;6295;49.452;8.466;2023-06-22T09:35:29;8.33;;;7.53;;
12459;SDS011;6295;49.452;8.466;2023-06-22T09:39:31;7.83;;;7.13;;
12459;SDS011;6295;49.452;8.466;2023-06-22T09:43:37;7.43;;;6.73;;
12459;SDS011;6295;49.452;8.466;2023-06-22T09:47:44;7.00;;;6.33;;
12459;SDS011;6295;49.452;8.466;2023-06-22T09:51:49;8.03;;;6.87;;
12459;SDS011;6295;49.452;8.466;2023-06-22T09:55:53;8.30;;;7.50;;
12459;SDS011;6295;49.452;8.466;2023-06-22T09:59:59;7.80;;;6.90;;
12459;SDS011;6295;49.452;8.466;2023-06-22T10:04:06;7.83;;;6.70;;
12459;SDS011;6295;49.452;8.466;2023-06-22T10:08:09;8.20;;;7.10;;
12459;SDS011;6295;49.452;8.466;2023-06-22T10:12:11;8.30;;;7.50;;
12459;SDS011;6295;49.452;8.466;2023-06-22T10:16:15;10.10;;;8.00;;
12459;SDS011;6295;49.452;8.466;2023-06-22T10:20:17;8.13;;;7.43;;
12459;SDS011;6295;49.452;8.466;2023-06-22T10:24:21;8.43;;;7.67;;
12459;SDS011;6295;49.452;8.466;2023-06-22T10:28:24;8.23;;;7.40;;
12459;SDS011;6295;49.452;8.466;2023-06-22T10:32:28;8.97;;;7.50;;
12459;SDS011;6295;49.452;8.466;2023-06-22T10:36:30;8.50;;;7.70;;
12459;SDS011;6295;49.452;8.466;2023-06-22T10:40:32;8.23;;;7.33;;
12459;SDS011;6295;49.452;8.466;2023-06-22T10:44:35;10.03;;;7.43;;
12459;SDS011;6295;49.452;8.466;2023-06-22T10:48:38;8.30;;;7.30;;
12459;SDS011;6295;49.452;8.466;2023-06-22T10:52:40;8.23;;;7.40;;
12459;SDS011;6295;49.452;8.466;2023-06-22T10:56:42;8.17;;;7.30;;
12459;SDS011;6295;49.452;8.466;2023-06-22T11:00:45;9.07;;;7.50;;
12459;SDS011;6295;49.452;8.466;2023-06-22T11:04:48;8.50;;;7.57;;
12459;SDS011;6295;49.452;8.466;2023-06-22T11:08:50;10.93;;;8.67;;
12459;SDS011;6295;49.452;8.466;2023-06-22T11:12:52;9.90;;;8.10;;
12459;SDS011;6295;49.452;8.466;2023-06-22T11:16:55;8.53;;;7.73;;
12459;SDS011;6295;49.452;8.466;2023-06-22T11:20:59;8.37;;;7.20;;
12459;SDS011;6295;49.452;8.466;2023-06-22T11:25:01;8.43;;;7.50;;
12459;SDS011;6295;49.452;8.466;2023-06-22T11:29:03;7.87;;;6.73;;
12459;SDS011;6295;49.452;8.466;2023-06-22T11:33:06;8.90;;;7.47;;
12459;SDS011;6295;49.452;8.466;2023-06-22T11:37:09;7.93;;;7.00;;
12459;SDS011;6295;49.452;8.466;2023-06-22T11:41:11;7.67;;;6.97;;
12459;SDS011;6295;49.452;8.466;2023-06-22T11:45:13;7.33;;;6.63;;
12459;SDS011;6295;49.452;8.466;2023-06-22T11:49:17;9.07;;;7.10;;
12459;SDS011;6295;49.452;8.466;2023-06-22T11:53:23;8.07;;;7.30;;
12459;SDS011;6295;49.452;8.466;2023-06-22T11:57:28;7.93;;;7.13;;
12459;SDS011;6295;49.452;8.466;2023-06-22T12:01:30;8.20;;;7.30;;
12459;SDS011;6295;49.452;8.466;2023-06-22T12:05:33;7.73;;;7.03;;
12459;SDS011;6295;49.452;8.466;2023-06-22T12:09:37;9.83;;;6.83;;
12459;SDS011;6295;49.452;8.466;2023-06-22T12:13:39;8.10;;;7.10;;
12459;SDS011;6295;49.452;8.466;2023-06-22T12:17:41;7.73;;;7.03;;
12459;SDS011;6295;49.452;8.466;2023-06-22T12:21:43;8.63;;;7.33;;
12459;SDS011;6295;49.452;8.466;2023-06-22T12:25:48;8.10;;;7.30;;
12459;SDS011;6295;49.452;8.466;2023-06-22T12:29:50;9.13;;;7.40;;
12459;SDS011;6295;49.452;8.466;2023-06-22T12:33:52;9.03;;;7.43;;
12459;SDS011;6295;49.452;8.466;2023-06-22T12:37:54;7.97;;;7.17;;
12459;SDS011;6295;49.452;8.466;2023-06-22T12:41:58;9.27;;;7.37;;
12459;SDS011;6295;49.452;8.466;2023-06-22T12:46:00;11.10;;;7.67;;
12459;SDS011;6295;49.452;8.466;2023-06-22T12:50:02;9.77;;;7.40;;
12459;SDS011;6295;49.452;8.466;2023-06-22T12:54:05;9.43;;;7.07;;
12459;SDS011;6295;49.452;8.466;2023-06-22T12:58:08;10.03;;;7.07;;
12459;SDS011;6295;49.452;8.466;2023-06-22T13:02:11;8.00;;;7.20;;
12459;SDS011;6295;49.452;8.466;2023-06-22T13:06:13;9.03;;;7.20;;
12459;SDS011;6295;49.452;8.466;2023-06-22T13:10:16;8.23;;;6.83;;
12459;SDS011;6295;49.452;8.466;2023-06-22T13:14:21;8.93;;;7.43;;
12459;SDS011;6295;49.452;8.466;2023-06-22T13:18:24;9.77;;;7.90;;
12459;SDS011;6295;49.452;8.466;2023-06-22T13:22:26;9.07;;;7.83;;
12459;SDS011;6295;49.452;8.466;2023-06-22T13:26:30;8.50;;;6.60;;
12459;SDS011;6295;49.452;8.466;2023-06-22T13:30:35;8.37;;;6.77;;
12459;SDS011;6295;49.452;8.466;2023-06-22T13:34:40;8.57;;;7.20;;
12459;SDS011;6295;49.452;8.466;2023-06-22T13:38:45;9.83;;;7.03;;
12459;SDS011;6295;49.452;8.466;2023-06-22T13:42:50;10.60;;;7.77;;
12459;SDS011;6295;49.452;8.466;2023-06-22T13:46:53;8.40;;;7.50;;
12459;SDS011;6295;49.452;8.466;2023-06-22T13:50:57;9.40;;;7.27;;
12459;SDS011;6295;49.452;8.466;2023-06-22T13:54:59;10.27;;;7.67;;
12459;SDS011;6295;49.452;8.466;2023-06-22T13:59:01;8.60;;;7.70;;
12459;SDS011;6295;49.452;8.466;2023-06-22T14:03:05;8.80;;;7.47;;
12459;SDS011;6295;49.452;8.466;2023-06-22T14:07:07;10.03;;;7.53;;
12459;SDS011;6295;49.452;8.466;2023-06-22T14:11:09;9.30;;;7.37;;
12459;SDS011;6295;49.452;8.466;2023-06-22T14:15:11;9.53;;;7.50;;
12459;SDS011;6295;49.452;8.466;2023-06-22T14:19:16;7.77;;;7.00;;
12459;SDS011;6295;49.452;8.466;2023-06-22T14:23:19;9.97;;;7.50;;
12459;SDS011;6295;49.452;8.466;2023-06-22T14:27:21;10.33;;;7.60;;
12459;SDS011;6295;49.452;8.466;2023-06-22T14:31:24;8.53;;;7.73;;
12459;SDS011;6295;49.452;8.466;2023-06-22T14:35:27;8.67;;;7.27;;
12459;SDS011;6295;49.452;8.466;2023-06-22T14:39:29;10.20;;;7.80;;
12459;SDS011;6295;49.452;8.466;2023-06-22T14:43:31;11.37;;;7.37;;
12459;SDS011;6295;49.452;8.466;2023-06-22T14:47:33;9.23;;;8.13;;
12459;SDS011;6295;49.452;8.466;2023-06-22T14:51:37;8.17;;;7.43;;
12459;SDS011;6295;49.452;8.466;2023-06-22T14:55:39;8.47;;;7.40;;
12459;SDS011;6295;49.452;8.466;2023-06-22T14:59:41;8.70;;;7.83;;
12459;SDS011;6295;49.452;8.466;2023-06-22T15:03:43;8.50;;;7.60;;
12459;SDS011;6295;49.452;8.466;2023-06-22T15:07:47;9.90;;;7.77;;
12459;SDS011;6295;49.452;8.466;2023-06-22T15:11:49;10.33;;;8.00;;
12459;SDS011;6295;49.452;8.466;2023-06-22T15:15:53;10.10;;;8.57;;
12459;SDS011;6295;49.452;8.466;2023-06-22T15:19:55;11.90;;;7.90;;
12459;SDS011;6295;49.452;8.466;2023-06-22T15:23:59;8.70;;;7.80;;
12459;SDS011;6295;49.452;8.466;2023-06-22T15:28:01;11.37;;;8.20;;
12459;SDS011;6295;49.452;8.466;2023-06-22T15:32:04;11.20;;;8.00;;
12459;SDS011;6295;49.452;8.466;2023-06-22T15:36:06;13.20;;;8.17;;
12459;SDS011;6295;49.452;8.466;2023-06-22T15:40:10;11.50;;;7.93;;
12459;SDS011;6295;49.452;8.466;2023-06-22T15:44:12;8.83;;;7.93;;
12459;SDS011;6295;49.452;8.466;2023-06-22T15:48:15;9.83;;;7.90;;
12459;SDS011;6295;49.452;8.466;2023-06-22T15:52:17;8.73;;;7.87;;
12459;SDS011;6295;49.452;8.466;2023-06-22T15:56:21;8.00;;;7.20;;
12459;SDS011;6295;49.452;8.466;2023-06-22T16:00:26;12.30;;;8.40;;
12459;SDS011;6295;49.452;8.466;2023-06-22T16:04:28;9.27;;;8.23;;
12459;SDS011;6295;49.452;8.466;2023-06-22T16:08:31;9.33;;;8.00;;
12459;SDS011;6295;49.452;8.466;2023-06-22T16:12:35;10.70;;;8.30;;
12459;SDS011;6295;49.452;8.466;2023-06-22T16:16:37;9.57;;;7.67;;
12459;SDS011;6295;49.452;8.466;2023-06-22T16:20:39;12.03;;;7.70;;
12459;SDS011;6295;49.452;8.466;2023-06-22T16:24:43;9.40;;;7.77;;
12459;SDS011;6295;49.452;8.466;2023-06-22T16:28:46;10.23;;;7.83;;
12459;SDS011;6295;49.452;8.466;2023-06-22T16:32:52;9.27;;;8.23;;
12459;SDS011;6295;49.452;8.466;2023-06-22T16:36:54;9.67;;;8.30;;
12459;SDS011;6295;49.452;8.466;2023-06-22T16:40:57;11.90;;;8.50;;
12459;SDS011;6295;49.452;8.466;2023-06-22T16:45:00;12.03;;;7.97;;
12459;SDS011;6295;49.452;8.466;2023-06-22T16:49:03;11.07;;;8.30;;
12459;SDS011;6295;49.452;8.466;2023-06-22T16:53:05;11.10;;;7.67;;
12459;SDS011;6295;49.452;8.466;2023-06-22T16:57:07;12.07;;;6.70;;
12459;SDS011;6295;49.452;8.466;2023-06-22T17:01:12;7.57;;;5.40;;
12459;SDS011;6295;49.452;8.466;2023-06-22T17:05:17;8.43;;;4.60;;
12459;SDS011;6295;49.452;8.466;2023-06-22T17:09:20;9.10;;;5.43;;
12459;SDS011;6295;49.452;8.466;2023-06-22T17:13:23;6.93;;;4.77;;
12459;SDS011;6295;49.452;8.466;2023-06-22T17:17:27;9.07;;;4.80;;
12459;SDS011;6295;49.452;8.466;2023-06-22T17:21:30;7.43;;;4.90;;
12459;SDS011;6295;49.452;8.466;2023-06-22T17:25:34;9.90;;;5.20;;
12459;SDS011;6295;49.452;8.466;2023-06-22T17:29:41;8.83;;;5.20;;
12459;SDS011;6295;49.452;8.466;2023-06-22T17:33:45;7.60;;;4.80;;
12459;SDS011;6295;49.452;8.466;2023-06-22T17:37:51;6.77;;;5.50;;
12459;SDS011;6295;49.452;8.466;2023-06-22T17:41:55;7.33;;;5.63;;
12459;SDS011;6295;49.452;8.466;2023-06-22T17:45:57;6.90;;;5.60;;
12459;SDS011;6295;49.452;8.466;2023-06-22T17:50:05;7.93;;;5.67;;
12459;SDS011;6295;49.452;8.466;2023-06-22T17:54:08;6.33;;;4.63;;
12459;SDS011;6295;49.452;8.466;2023-06-22T17:58:10;10.40;;;4.83;;
12459;SDS011;6295;49.452;8.466;2023-06-22T18:02:14;9.40;;;4.20;;
12459;SDS011;6295;49.452;8.466;2023-06-22T18:06:27;8.03;;;3.60;;
12459;SDS011;6295;49.452;8.466;2023-06-22T18:10:31;9.07;;;3.90;;
12459;SDS011;6295;49.452;8.466;2023-06-22T18:14:34;11.17;;;4.10;;
12459;SDS011;6295;49.452;8.466;2023-06-22T18:18:36;7.23;;;3.97;;
12459;SDS011;6295;49.452;8.466;2023-06-22T18:22:42;5.47;;;3.87;;
12459;SDS011;6295;49.452;8.466;2023-06-22T18:26:45;6.87;;;4.00;;
12459;SDS011;6295;49.452;8.466;2023-06-22T18:30:49;6.63;;;3.83;;
12459;SDS011;6295;49.452;8.466;2023-06-22T18:34:51;6.90;;;3.70;;
12459;SDS011;6295;49.452;8.466;2023-06-22T18:38:56;5.43;;;4.03;;
12459;SDS011;6295;49.452;8.466;2023-06-22T18:43:01;6.87;;;4.10;;
12459;SDS011;6295;49.452;8.466;2023-06-22T18:47:04;6.97;;;4.20;;
12459;SDS011;6295;49.452;8.466;2023-06-22T18:51:10;8.23;;;4.07;;
12459;SDS011;6295;49.452;8.466;2023-06-22T18:55:16;5.67;;;3.70;;
